LGIR/HER METAR and TAF weather

Enter ICAO airport designator
Station Type Date Time Source
LGIR METAR 2019/06/27 10:20 UTC NOAA

LGIR 271020Z 30018KT 9999 FEW020 28/22 Q1012 NOSIG


Station Type Date Time Source
LGIR Decoded METAR 2019/06/27 10:20 UTC NOAA

Heraklion Airport , Greece (LGIR) 35-20N 025-11E 39M
Jun 27, 2019 - 06:20 AM EDT / 2019.06.27 1020 UTC
Wind: from the WNW (300 degrees) at 21 MPH (18 KT):0
Visibility: greater than 7 mile(s):0
Sky conditions: mostly clear
Temperature: 82 F (28 C)
Dew Point: 71 F (22 C)
Relative Humidity: 69%
Pressure (altimeter): 29.88 in. Hg (1012 hPa)
ob: LGIR 271020Z 30018KT 9999 FEW020 28/22 Q1012 NOSIG
cycle: 10

Station Type Date Time Source
LGIR TAF 2019/06/27 06:12 UTC NOAA

TAF LGIR 270500Z 2706/2806 32018KT 9999 FEW018 SCT020

Example: see airport list